sensor_id;sensor_type;location;lat;lon;timestamp;P1;durP1;ratioP1;P2;durP2;ratioP2
73276;SDS011;61501;43.316;5.372;2023-07-30T00:02:04;7.82;;;4.78;;
73276;SDS011;61501;43.316;5.372;2023-07-30T00:04:29;10.75;;;4.63;;
73276;SDS011;61501;43.316;5.372;2023-07-30T00:06:55;9.45;;;4.80;;
73276;SDS011;61501;43.316;5.372;2023-07-30T00:09:21;9.93;;;5.25;;
73276;SDS011;61501;43.316;5.372;2023-07-30T00:11:46;9.85;;;6.28;;
73276;SDS011;61501;43.316;5.372;2023-07-30T00:14:12;9.30;;;4.57;;
73276;SDS011;61501;43.316;5.372;2023-07-30T00:16:37;7.88;;;4.30;;
73276;SDS011;61501;43.316;5.372;2023-07-30T00:19:03;12.35;;;4.68;;
73276;SDS011;61501;43.316;5.372;2023-07-30T00:21:29;7.88;;;4.88;;
73276;SDS011;61501;43.316;5.372;2023-07-30T00:23:55;7.88;;;4.68;;
73276;SDS011;61501;43.316;5.372;2023-07-30T00:26:20;10.80;;;4.78;;
73276;SDS011;61501;43.316;5.372;2023-07-30T00:28:46;10.60;;;4.63;;
73276;SDS011;61501;43.316;5.372;2023-07-30T00:31:12;10.18;;;5.07;;
73276;SDS011;61501;43.316;5.372;2023-07-30T00:33:37;8.98;;;4.97;;
73276;SDS011;61501;43.316;5.372;2023-07-30T00:36:03;9.43;;;5.85;;
73276;SDS011;61501;43.316;5.372;2023-07-30T00:38:29;8.88;;;5.57;;
73276;SDS011;61501;43.316;5.372;2023-07-30T00:40:54;8.82;;;5.50;;
73276;SDS011;61501;43.316;5.372;2023-07-30T00:43:20;9.77;;;5.38;;
73276;SDS011;61501;43.316;5.372;2023-07-30T00:45:46;12.65;;;6.95;;
73276;SDS011;61501;43.316;5.372;2023-07-30T00:48:12;11.80;;;9.07;;
73276;SDS011;61501;43.316;5.372;2023-07-30T00:50:39;8.40;;;6.50;;
73276;SDS011;61501;43.316;5.372;2023-07-30T00:53:05;11.25;;;8.15;;
73276;SDS011;61501;43.316;5.372;2023-07-30T00:55:33;12.43;;;7.68;;
73276;SDS011;61501;43.316;5.372;2023-07-30T00:58:00;11.38;;;6.85;;
73276;SDS011;61501;43.316;5.372;2023-07-30T01:00:26;9.63;;;5.82;;
73276;SDS011;61501;43.316;5.372;2023-07-30T01:02:53;15.60;;;7.65;;
73276;SDS011;61501;43.316;5.372;2023-07-30T01:05:19;8.95;;;6.20;;
73276;SDS011;61501;43.316;5.372;2023-07-30T01:07:45;11.15;;;7.10;;
73276;SDS011;61501;43.316;5.372;2023-07-30T01:10:11;8.80;;;6.03;;
73276;SDS011;61501;43.316;5.372;2023-07-30T01:12:36;7.80;;;5.30;;
73276;SDS011;61501;43.316;5.372;2023-07-30T01:15:03;8.43;;;5.80;;
73276;SDS011;61501;43.316;5.372;2023-07-30T01:17:30;8.05;;;5.15;;
73276;SDS011;61501;43.316;5.372;2023-07-30T01:19:56;7.10;;;5.40;;
73276;SDS011;61501;43.316;5.372;2023-07-30T01:22:22;8.60;;;5.18;;
73276;SDS011;61501;43.316;5.372;2023-07-30T01:24:48;8.10;;;4.65;;
73276;SDS011;61501;43.316;5.372;2023-07-30T01:27:16;8.68;;;5.97;;
73276;SDS011;61501;43.316;5.372;2023-07-30T01:29:49;8.77;;;5.25;;
73276;SDS011;61501;43.316;5.372;2023-07-30T01:32:19;6.22;;;4.78;;
73276;SDS011;61501;43.316;5.372;2023-07-30T01:34:50;9.80;;;5.35;;
73276;SDS011;61501;43.316;5.372;2023-07-30T01:37:22;6.75;;;5.15;;
73276;SDS011;61501;43.316;5.372;2023-07-30T01:39:48;9.32;;;5.22;;
73276;SDS011;61501;43.316;5.372;2023-07-30T01:42:15;7.95;;;5.40;;
73276;SDS011;61501;43.316;5.372;2023-07-30T01:44:41;8.60;;;5.05;;
73276;SDS011;61501;43.316;5.372;2023-07-30T01:47:06;7.60;;;5.55;;
73276;SDS011;61501;43.316;5.372;2023-07-30T01:49:32;8.52;;;5.30;;
73276;SDS011;61501;43.316;5.372;2023-07-30T01:51:58;8.05;;;5.50;;
73276;SDS011;61501;43.316;5.372;2023-07-30T01:54:24;9.30;;;5.60;;
73276;SDS011;61501;43.316;5.372;2023-07-30T01:56:50;6.25;;;5.13;;
73276;SDS011;61501;43.316;5.372;2023-07-30T01:59:16;7.07;;;5.95;;
73276;SDS011;61501;43.316;5.372;2023-07-30T02:01:41;7.75;;;6.07;;
73276;SDS011;61501;43.316;5.372;2023-07-30T02:04:08;7.53;;;5.68;;
73276;SDS011;61501;43.316;5.372;2023-07-30T02:06:34;6.88;;;5.22;;
73276;SDS011;61501;43.316;5.372;2023-07-30T02:08:59;7.97;;;5.93;;
73276;SDS011;61501;43.316;5.372;2023-07-30T02:11:25;8.27;;;5.75;;
73276;SDS011;61501;43.316;5.372;2023-07-30T02:13:51;6.97;;;5.72;;
73276;SDS011;61501;43.316;5.372;2023-07-30T02:16:16;8.07;;;5.90;;
73276;SDS011;61501;43.316;5.372;2023-07-30T02:18:42;8.57;;;6.10;;
73276;SDS011;61501;43.316;5.372;2023-07-30T02:21:07;8.45;;;5.97;;
73276;SDS011;61501;43.316;5.372;2023-07-30T02:23:33;8.90;;;5.78;;
73276;SDS011;61501;43.316;5.372;2023-07-30T02:25:59;8.68;;;5.88;;
73276;SDS011;61501;43.316;5.372;2023-07-30T02:28:25;6.50;;;5.55;;
73276;SDS011;61501;43.316;5.372;2023-07-30T02:30:50;8.30;;;5.90;;
73276;SDS011;61501;43.316;5.372;2023-07-30T02:33:16;6.40;;;5.65;;
73276;SDS011;61501;43.316;5.372;2023-07-30T02:35:42;6.93;;;5.65;;
73276;SDS011;61501;43.316;5.372;2023-07-30T02:38:09;6.45;;;5.68;;
73276;SDS011;61501;43.316;5.372;2023-07-30T02:40:34;7.32;;;5.47;;
73276;SDS011;61501;43.316;5.372;2023-07-30T02:43:00;7.88;;;5.45;;
73276;SDS011;61501;43.316;5.372;2023-07-30T02:45:25;8.20;;;6.15;;
73276;SDS011;61501;43.316;5.372;2023-07-30T02:47:51;6.72;;;5.35;;
73276;SDS011;61501;43.316;5.372;2023-07-30T02:50:17;8.57;;;5.97;;
73276;SDS011;61501;43.316;5.372;2023-07-30T02:52:42;8.60;;;5.40;;
73276;SDS011;61501;43.316;5.372;2023-07-30T02:55:08;6.07;;;5.47;;
73276;SDS011;61501;43.316;5.372;2023-07-30T02:57:34;9.50;;;6.15;;
73276;SDS011;61501;43.316;5.372;2023-07-30T03:00:03;7.40;;;5.93;;
73276;SDS011;61501;43.316;5.372;2023-07-30T03:02:29;8.35;;;5.95;;
73276;SDS011;61501;43.316;5.372;2023-07-30T03:04:55;12.00;;;7.05;;
73276;SDS011;61501;43.316;5.372;2023-07-30T03:07:21;11.13;;;7.60;;
73276;SDS011;61501;43.316;5.372;2023-07-30T03:09:47;10.55;;;6.50;;
73276;SDS011;61501;43.316;5.372;2023-07-30T03:12:13;9.43;;;7.28;;
73276;SDS011;61501;43.316;5.372;2023-07-30T03:14:38;8.82;;;7.03;;
73276;SDS011;61501;43.316;5.372;2023-07-30T03:17:04;9.35;;;7.18;;
73276;SDS011;61501;43.316;5.372;2023-07-30T03:19:30;11.30;;;6.90;;
73276;SDS011;61501;43.316;5.372;2023-07-30T03:21:56;8.13;;;5.93;;
73276;SDS011;61501;43.316;5.372;2023-07-30T03:24:22;6.85;;;6.25;;
73276;SDS011;61501;43.316;5.372;2023-07-30T03:26:47;7.75;;;6.28;;
73276;SDS011;61501;43.316;5.372;2023-07-30T03:29:14;8.75;;;6.72;;
73276;SDS011;61501;43.316;5.372;2023-07-30T03:31:39;6.85;;;5.95;;
73276;SDS011;61501;43.316;5.372;2023-07-30T03:34:05;8.10;;;5.97;;
73276;SDS011;61501;43.316;5.372;2023-07-30T03:36:31;7.35;;;6.30;;
73276;SDS011;61501;43.316;5.372;2023-07-30T03:38:56;9.75;;;6.18;;
73276;SDS011;61501;43.316;5.372;2023-07-30T03:41:22;9.85;;;6.32;;
73276;SDS011;61501;43.316;5.372;2023-07-30T03:43:48;6.65;;;5.95;;
73276;SDS011;61501;43.316;5.372;2023-07-30T03:46:14;7.88;;;6.55;;
73276;SDS011;61501;43.316;5.372;2023-07-30T03:48:41;9.82;;;7.15;;
73276;SDS011;61501;43.316;5.372;2023-07-30T03:51:07;10.05;;;6.88;;
73276;SDS011;61501;43.316;5.372;2023-07-30T03:53:33;7.32;;;6.57;;
73276;SDS011;61501;43.316;5.372;2023-07-30T03:55:59;9.82;;;7.32;;
73276;SDS011;61501;43.316;5.372;2023-07-30T03:58:25;9.20;;;7.07;;
73276;SDS011;61501;43.316;5.372;2023-07-30T04:00:50;7.97;;;6.57;;
73276;SDS011;61501;43.316;5.372;2023-07-30T04:03:16;8.15;;;7.15;;
73276;SDS011;61501;43.316;5.372;2023-07-30T04:05:41;9.88;;;6.63;;
73276;SDS011;61501;43.316;5.372;2023-07-30T04:08:07;10.35;;;7.25;;
73276;SDS011;61501;43.316;5.372;2023-07-30T04:10:32;7.75;;;6.90;;
73276;SDS011;61501;43.316;5.372;2023-07-30T04:12:59;7.25;;;6.60;;
73276;SDS011;61501;43.316;5.372;2023-07-30T04:15:24;9.90;;;6.90;;
73276;SDS011;61501;43.316;5.372;2023-07-30T04:17:50;9.32;;;6.80;;
73276;SDS011;61501;43.316;5.372;2023-07-30T04:20:16;7.72;;;6.95;;
73276;SDS011;61501;43.316;5.372;2023-07-30T04:22:42;7.88;;;7.18;;
73276;SDS011;61501;43.316;5.372;2023-07-30T04:25:08;9.55;;;7.43;;
73276;SDS011;61501;43.316;5.372;2023-07-30T04:27:35;9.10;;;7.55;;
73276;SDS011;61501;43.316;5.372;2023-07-30T04:30:01;9.32;;;8.10;;
73276;SDS011;61501;43.316;5.372;2023-07-30T04:32:27;7.85;;;7.05;;
73276;SDS011;61501;43.316;5.372;2023-07-30T04:34:53;9.30;;;8.25;;
73276;SDS011;61501;43.316;5.372;2023-07-30T04:37:18;9.30;;;8.25;;
73276;SDS011;61501;43.316;5.372;2023-07-30T04:39:44;8.98;;;7.55;;
73276;SDS011;61501;43.316;5.372;2023-07-30T04:42:09;10.23;;;8.23;;
73276;SDS011;61501;43.316;5.372;2023-07-30T04:44:35;9.18;;;8.27;;
73276;SDS011;61501;43.316;5.372;2023-07-30T04:47:01;9.18;;;8.15;;
73276;SDS011;61501;43.316;5.372;2023-07-30T04:49:26;10.50;;;8.93;;
73276;SDS011;61501;43.316;5.372;2023-07-30T04:51:52;8.93;;;8.02;;
73276;SDS011;61501;43.316;5.372;2023-07-30T04:54:18;10.07;;;9.07;;
73276;SDS011;61501;43.316;5.372;2023-07-30T04:56:43;10.00;;;9.10;;
73276;SDS011;61501;43.316;5.372;2023-07-30T04:59:09;10.15;;;9.15;;
73276;SDS011;61501;43.316;5.372;2023-07-30T05:01:34;10.48;;;9.50;;
73276;SDS011;61501;43.316;5.372;2023-07-30T05:04:00;10.10;;;9.13;;
73276;SDS011;61501;43.316;5.372;2023-07-30T05:06:26;9.95;;;8.98;;
73276;SDS011;61501;43.316;5.372;2023-07-30T05:08:51;9.70;;;8.88;;
73276;SDS011;61501;43.316;5.372;2023-07-30T05:11:17;10.05;;;9.05;;
73276;SDS011;61501;43.316;5.372;2023-07-30T05:13:42;10.98;;;9.18;;
73276;SDS011;61501;43.316;5.372;2023-07-30T05:16:08;12.18;;;9.98;;
73276;SDS011;61501;43.316;5.372;2023-07-30T05:18:33;9.27;;;8.48;;
73276;SDS011;61501;43.316;5.372;2023-07-30T05:20:59;10.02;;;9.10;;
73276;SDS011;61501;43.316;5.372;2023-07-30T05:23:25;10.07;;;9.07;;
73276;SDS011;61501;43.316;5.372;2023-07-30T05:25:50;10.05;;;9.15;;
73276;SDS011;61501;43.316;5.372;2023-07-30T05:28:16;10.38;;;9.32;;
73276;SDS011;61501;43.316;5.372;2023-07-30T05:30:41;12.45;;;9.27;;
73276;SDS011;61501;43.316;5.372;2023-07-30T05:33:07;11.88;;;9.20;;
73276;SDS011;61501;43.316;5.372;2023-07-30T05:35:33;9.18;;;8.23;;
73276;SDS011;61501;43.316;5.372;2023-07-30T05:37:59;10.48;;;8.70;;
73276;SDS011;61501;43.316;5.372;2023-07-30T05:40:24;11.23;;;9.35;;
73276;SDS011;61501;43.316;5.372;2023-07-30T05:42:50;9.90;;;9.00;;
73276;SDS011;61501;43.316;5.372;2023-07-30T05:45:16;10.65;;;9.13;;
73276;SDS011;61501;43.316;5.372;2023-07-30T05:47:41;10.27;;;8.38;;
73276;SDS011;61501;43.316;5.372;2023-07-30T05:50:07;13.13;;;8.60;;
73276;SDS011;61501;43.316;5.372;2023-07-30T05:52:33;9.40;;;7.85;;
73276;SDS011;61501;43.316;5.372;2023-07-30T05:54:59;11.90;;;7.85;;
73276;SDS011;61501;43.316;5.372;2023-07-30T05:57:25;8.98;;;7.93;;
73276;SDS011;61501;43.316;5.372;2023-07-30T05:59:50;9.27;;;7.40;;
73276;SDS011;61501;43.316;5.372;2023-07-30T06:02:16;9.98;;;8.02;;
73276;SDS011;61501;43.316;5.372;2023-07-30T06:04:42;8.88;;;8.02;;
73276;SDS011;61501;43.316;5.372;2023-07-30T06:07:08;8.35;;;7.50;;
73276;SDS011;61501;43.316;5.372;2023-07-30T06:09:34;10.13;;;7.32;;
73276;SDS011;61501;43.316;5.372;2023-07-30T06:12:00;7.90;;;7.18;;
73276;SDS011;61501;43.316;5.372;2023-07-30T06:14:26;8.15;;;6.95;;
73276;SDS011;61501;43.316;5.372;2023-07-30T06:16:52;7.20;;;6.50;;
73276;SDS011;61501;43.316;5.372;2023-07-30T06:19:18;7.07;;;5.85;;
73276;SDS011;61501;43.316;5.372;2023-07-30T06:21:44;6.05;;;5.45;;
73276;SDS011;61501;43.316;5.372;2023-07-30T06:24:10;7.20;;;5.43;;
73276;SDS011;61501;43.316;5.372;2023-07-30T06:26:36;6.15;;;5.55;;
73276;SDS011;61501;43.316;5.372;2023-07-30T06:29:02;8.52;;;6.38;;
73276;SDS011;61501;43.316;5.372;2023-07-30T06:31:27;9.20;;;6.57;;
73276;SDS011;61501;43.316;5.372;2023-07-30T06:33:53;7.05;;;5.95;;
73276;SDS011;61501;43.316;5.372;2023-07-30T06:36:19;6.25;;;5.63;;
73276;SDS011;61501;43.316;5.372;2023-07-30T06:38:44;6.47;;;4.95;;
73276;SDS011;61501;43.316;5.372;2023-07-30T06:41:10;6.25;;;4.90;;
73276;SDS011;61501;43.316;5.372;2023-07-30T06:43:35;4.72;;;4.32;;
73276;SDS011;61501;43.316;5.372;2023-07-30T06:46:01;7.25;;;4.82;;
73276;SDS011;61501;43.316;5.372;2023-07-30T06:48:27;5.43;;;4.60;;
73276;SDS011;61501;43.316;5.372;2023-07-30T06:50:53;5.28;;;4.78;;
73276;SDS011;61501;43.316;5.372;2023-07-30T06:53:18;5.72;;;4.55;;
73276;SDS011;61501;43.316;5.372;2023-07-30T06:55:44;6.05;;;4.55;;
73276;SDS011;61501;43.316;5.372;2023-07-30T06:58:10;4.82;;;4.32;;
73276;SDS011;61501;43.316;5.372;2023-07-30T07:00:36;6.35;;;4.40;;
73276;SDS011;61501;43.316;5.372;2023-07-30T07:03:01;3.78;;;2.72;;
73276;SDS011;61501;43.316;5.372;2023-07-30T07:05:27;3.95;;;3.00;;
73276;SDS011;61501;43.316;5.372;2023-07-30T07:07:52;4.05;;;3.22;;
73276;SDS011;61501;43.316;5.372;2023-07-30T07:10:18;4.95;;;3.10;;
73276;SDS011;61501;43.316;5.372;2023-07-30T07:12:44;3.00;;;2.65;;
73276;SDS011;61501;43.316;5.372;2023-07-30T07:15:09;3.55;;;2.35;;
73276;SDS011;61501;43.316;5.372;2023-07-30T07:17:35;2.53;;;2.20;;
73276;SDS011;61501;43.316;5.372;2023-07-30T07:20:01;3.95;;;2.47;;
73276;SDS011;61501;43.316;5.372;2023-07-30T07:22:29;2.80;;;2.35;;
73276;SDS011;61501;43.316;5.372;2023-07-30T07:24:55;2.50;;;2.28;;
73276;SDS011;61501;43.316;5.372;2023-07-30T07:27:21;2.13;;;1.70;;
73276;SDS011;61501;43.316;5.372;2023-07-30T07:29:49;3.20;;;2.25;;
73276;SDS011;61501;43.316;5.372;2023-07-30T07:32:15;3.72;;;2.20;;
73276;SDS011;61501;43.316;5.372;2023-07-30T07:34:40;3.25;;;1.73;;
73276;SDS011;61501;43.316;5.372;2023-07-30T07:37:06;2.72;;;2.28;;
73276;SDS011;61501;43.316;5.372;2023-07-30T07:39:32;4.00;;;1.58;;
73276;SDS011;61501;43.316;5.372;2023-07-30T07:41:58;2.80;;;2.00;;
73276;SDS011;61501;43.316;5.372;2023-07-30T07:44:24;2.58;;;1.92;;
73276;SDS011;61501;43.316;5.372;2023-07-30T07:46:49;3.55;;;2.35;;
73276;SDS011;61501;43.316;5.372;2023-07-30T07:49:15;4.22;;;2.13;;
73276;SDS011;61501;43.316;5.372;2023-07-30T07:51:40;2.40;;;2.00;;
73276;SDS011;61501;43.316;5.372;2023-07-30T07:54:06;3.33;;;2.33;;
73276;SDS011;61501;43.316;5.372;2023-07-30T07:56:32;3.53;;;2.50;;
73276;SDS011;61501;43.316;5.372;2023-07-30T07:58:58;4.70;;;2.70;;
73276;SDS011;61501;43.316;5.372;2023-07-30T08:01:24;3.45;;;2.50;;
73276;SDS011;61501;43.316;5.372;2023-07-30T08:03:50;2.92;;;2.60;;
73276;SDS011;61501;43.316;5.372;2023-07-30T08:06:16;3.88;;;2.75;;
73276;SDS011;61501;43.316;5.372;2023-07-30T08:08:41;4.25;;;2.70;;
73276;SDS011;61501;43.316;5.372;2023-07-30T08:11:07;3.45;;;2.50;;
73276;SDS011;61501;43.316;5.372;2023-07-30T08:13:34;2.90;;;2.38;;
73276;SDS011;61501;43.316;5.372;2023-07-30T08:16:00;4.18;;;2.90;;
73276;SDS011;61501;43.316;5.372;2023-07-30T08:18:26;4.60;;;2.47;;
73276;SDS011;61501;43.316;5.372;2023-07-30T08:20:52;2.80;;;2.40;;
73276;SDS011;61501;43.316;5.372;2023-07-30T08:23:17;3.65;;;2.50;;
73276;SDS011;61501;43.316;5.372;2023-07-30T08:25:43;4.05;;;2.67;;
73276;SDS011;61501;43.316;5.372;2023-07-30T08:28:09;4.32;;;2.47;;
73276;SDS011;61501;43.316;5.372;2023-07-30T08:30:34;3.90;;;2.60;;
73276;SDS011;61501;43.316;5.372;2023-07-30T08:33:00;3.50;;;1.80;;
73276;SDS011;61501;43.316;5.372;2023-07-30T08:35:25;3.83;;;1.88;;
73276;SDS011;61501;43.316;5.372;2023-07-30T08:37:54;3.28;;;1.95;;
73276;SDS011;61501;43.316;5.372;2023-07-30T08:40:21;3.67;;;2.00;;
73276;SDS011;61501;43.316;5.372;2023-07-30T08:42:49;2.22;;;1.92;;
73276;SDS011;61501;43.316;5.372;2023-07-30T08:45:16;2.20;;;1.92;;
73276;SDS011;61501;43.316;5.372;2023-07-30T08:47:41;2.50;;;1.55;;
73276;SDS011;61501;43.316;5.372;2023-07-30T08:50:07;2.65;;;1.80;;
73276;SDS011;61501;43.316;5.372;2023-07-30T08:52:33;4.35;;;2.17;;
73276;SDS011;61501;43.316;5.372;2023-07-30T08:55:01;4.00;;;1.85;;
73276;SDS011;61501;43.316;5.372;2023-07-30T08:57:28;3.75;;;2.15;;
73276;SDS011;61501;43.316;5.372;2023-07-30T08:59:58;2.28;;;2.03;;
73276;SDS011;61501;43.316;5.372;2023-07-30T09:05:04;3.92;;;2.25;;
73276;SDS011;61501;43.316;5.372;2023-07-30T09:07:30;3.97;;;2.47;;
73276;SDS011;61501;43.316;5.372;2023-07-30T09:09:56;3.35;;;2.13;;
73276;SDS011;61501;43.316;5.372;2023-07-30T09:12:25;3.03;;;1.70;;
73276;SDS011;61501;43.316;5.372;2023-07-30T09:14:53;3.17;;;1.77;;
73276;SDS011;61501;43.316;5.372;2023-07-30T09:17:19;2.30;;;1.90;;
73276;SDS011;61501;43.316;5.372;2023-07-30T09:19:45;3.22;;;2.00;;
73276;SDS011;61501;43.316;5.372;2023-07-30T09:22:25;3.55;;;1.65;;
73276;SDS011;61501;43.316;5.372;2023-07-30T09:24:55;3.05;;;2.03;;
73276;SDS011;61501;43.316;5.372;2023-07-30T09:27:21;3.47;;;2.50;;
73276;SDS011;61501;43.316;5.372;2023-07-30T09:29:50;2.92;;;2.03;;
73276;SDS011;61501;43.316;5.372;2023-07-30T09:32:20;3.00;;;2.20;;
73276;SDS011;61501;43.316;5.372;2023-07-30T09:34:50;3.63;;;1.83;;
73276;SDS011;61501;43.316;5.372;2023-07-30T09:37:16;2.80;;;1.77;;
73276;SDS011;61501;43.316;5.372;2023-07-30T09:39:42;3.10;;;2.08;;
73276;SDS011;61501;43.316;5.372;2023-07-30T09:42:08;2.65;;;1.80;;
73276;SDS011;61501;43.316;5.372;2023-07-30T09:44:34;3.58;;;1.70;;
73276;SDS011;61501;43.316;5.372;2023-07-30T09:47:03;2.42;;;1.80;;
73276;SDS011;61501;43.316;5.372;2023-07-30T09:49:30;2.05;;;1.42;;
73276;SDS011;61501;43.316;5.372;2023-07-30T09:51:57;5.07;;;2.20;;
73276;SDS011;61501;43.316;5.372;2023-07-30T09:54:23;2.40;;;1.80;;
73276;SDS011;61501;43.316;5.372;2023-07-30T09:56:49;3.28;;;1.73;;
73276;SDS011;61501;43.316;5.372;2023-07-30T09:59:15;3.28;;;1.85;;
73276;SDS011;61501;43.316;5.372;2023-07-30T10:01:47;1.90;;;1.70;;
73276;SDS011;61501;43.316;5.372;2023-07-30T10:04:14;2.13;;;1.90;;
73276;SDS011;61501;43.316;5.372;2023-07-30T10:09:30;3.08;;;1.70;;
73276;SDS011;61501;43.316;5.372;2023-07-30T10:12:00;2.92;;;1.80;;
73276;SDS011;61501;43.316;5.372;2023-07-30T10:14:28;2.45;;;1.70;;
73276;SDS011;61501;43.316;5.372;2023-07-30T10:16:55;2.40;;;1.63;;
73276;SDS011;61501;43.316;5.372;2023-07-30T10:19:27;2.67;;;1.80;;
73276;SDS011;61501;43.316;5.372;2023-07-30T10:24:40;1.70;;;1.60;;
73276;SDS011;61501;43.316;5.372;2023-07-30T10:27:22;2.63;;;1.70;;
73276;SDS011;61501;43.316;5.372;2023-07-30T10:29:50;2.22;;;1.60;;
73276;SDS011;61501;43.316;5.372;2023-07-30T10:32:57;4.38;;;1.70;;
73276;SDS011;61501;43.316;5.372;2023-07-30T10:38:13;1.63;;;1.50;;
73276;SDS011;61501;43.316;5.372;2023-07-30T10:41:01;2.17;;;1.50;;
73276;SDS011;61501;43.316;5.372;2023-07-30T10:43:50;2.40;;;1.70;;
73276;SDS011;61501;43.316;5.372;2023-07-30T10:46:18;2.22;;;1.90;;
73276;SDS011;61501;43.316;5.372;2023-07-30T10:48:49;1.55;;;1.45;;
73276;SDS011;61501;43.316;5.372;2023-07-30T10:51:15;2.17;;;1.58;;
73276;SDS011;61501;43.316;5.372;2023-07-30T10:53:46;3.40;;;1.50;;
73276;SDS011;61501;43.316;5.372;2023-07-30T10:56:12;2.60;;;2.00;;
73276;SDS011;61501;43.316;5.372;2023-07-30T10:58:40;3.63;;;2.13;;
73276;SDS011;61501;43.316;5.372;2023-07-30T11:01:07;2.25;;;1.75;;
73276;SDS011;61501;43.316;5.372;2023-07-30T11:03:33;3.55;;;1.77;;
73276;SDS011;61501;43.316;5.372;2023-07-30T11:06:00;2.25;;;1.70;;
73276;SDS011;61501;43.316;5.372;2023-07-30T11:11:03;2.05;;;1.50;;
73276;SDS011;61501;43.316;5.372;2023-07-30T11:13:34;2.58;;;1.83;;
73276;SDS011;61501;43.316;5.372;2023-07-30T11:16:06;3.85;;;1.80;;
73276;SDS011;61501;43.316;5.372;2023-07-30T11:18:33;2.30;;;1.85;;
73276;SDS011;61501;43.316;5.372;2023-07-30T11:21:03;3.08;;;1.92;;
73276;SDS011;61501;43.316;5.372;2023-07-30T11:23:29;2.58;;;1.70;;
73276;SDS011;61501;43.316;5.372;2023-07-30T11:25:54;2.90;;;2.03;;
73276;SDS011;61501;43.316;5.372;2023-07-30T11:28:26;2.13;;;1.67;;
73276;SDS011;61501;43.316;5.372;2023-07-30T11:30:53;3.33;;;1.90;;
73276;SDS011;61501;43.316;5.372;2023-07-30T11:33:19;2.28;;;2.08;;
73276;SDS011;61501;43.316;5.372;2023-07-30T11:35:45;3.15;;;2.03;;
73276;SDS011;61501;43.316;5.372;2023-07-30T11:38:11;1.95;;;1.75;;
73276;SDS011;61501;43.316;5.372;2023-07-30T11:40:38;2.25;;;1.90;;
73276;SDS011;61501;43.316;5.372;2023-07-30T11:43:04;2.17;;;1.95;;
73276;SDS011;61501;43.316;5.372;2023-07-30T11:45:29;2.72;;;1.80;;
73276;SDS011;61501;43.316;5.372;2023-07-30T11:48:04;2.35;;;2.13;;
73276;SDS011;61501;43.316;5.372;2023-07-30T11:50:43;3.13;;;2.33;;
73276;SDS011;61501;43.316;5.372;2023-07-30T11:53:13;3.08;;;2.17;;
73276;SDS011;61501;43.316;5.372;2023-07-30T11:55:40;1.95;;;1.70;;
73276;SDS011;61501;43.316;5.372;2023-07-30T11:58:06;2.80;;;2.30;;
73276;SDS011;61501;43.316;5.372;2023-07-30T12:00:34;3.00;;;2.30;;
73276;SDS011;61501;43.316;5.372;2023-07-30T12:03:05;2.72;;;2.08;;
73276;SDS011;61501;43.316;5.372;2023-07-30T12:05:35;4.82;;;3.08;;
73276;SDS011;61501;43.316;5.372;2023-07-30T12:08:05;2.75;;;2.22;;
73276;SDS011;61501;43.316;5.372;2023-07-30T12:10:45;2.40;;;2.20;;
73276;SDS011;61501;43.316;5.372;2023-07-30T12:13:17;2.70;;;2.00;;
73276;SDS011;61501;43.316;5.372;2023-07-30T12:15:50;2.97;;;2.30;;
73276;SDS011;61501;43.316;5.372;2023-07-30T12:18:17;3.75;;;2.20;;
73276;SDS011;61501;43.316;5.372;2023-07-30T12:20:43;2.30;;;1.98;;
73276;SDS011;61501;43.316;5.372;2023-07-30T12:23:09;4.05;;;2.00;;
73276;SDS011;61501;43.316;5.372;2023-07-30T12:25:35;3.47;;;2.40;;
73276;SDS011;61501;43.316;5.372;2023-07-30T12:28:00;3.13;;;2.05;;
73276;SDS011;61501;43.316;5.372;2023-07-30T12:30:26;2.85;;;2.00;;
73276;SDS011;61501;43.316;5.372;2023-07-30T12:32:53;4.15;;;2.10;;
73276;SDS011;61501;43.316;5.372;2023-07-30T12:35:19;3.60;;;2.10;;
73276;SDS011;61501;43.316;5.372;2023-07-30T12:37:44;4.88;;;2.17;;
73276;SDS011;61501;43.316;5.372;2023-07-30T12:40:10;4.45;;;2.20;;
73276;SDS011;61501;43.316;5.372;2023-07-30T12:42:36;2.78;;;1.90;;
73276;SDS011;61501;43.316;5.372;2023-07-30T12:45:02;3.75;;;2.00;;
73276;SDS011;61501;43.316;5.372;2023-07-30T12:47:28;3.45;;;2.10;;
73276;SDS011;61501;43.316;5.372;2023-07-30T12:49:53;3.80;;;2.20;;
73276;SDS011;61501;43.316;5.372;2023-07-30T12:52:19;4.00;;;1.95;;
73276;SDS011;61501;43.316;5.372;2023-07-30T12:54:45;6.43;;;2.00;;
73276;SDS011;61501;43.316;5.372;2023-07-30T12:57:11;5.22;;;2.10;;
73276;SDS011;61501;43.316;5.372;2023-07-30T12:59:36;3.33;;;2.47;;
73276;SDS011;61501;43.316;5.372;2023-07-30T13:02:03;2.75;;;2.10;;
73276;SDS011;61501;43.316;5.372;2023-07-30T13:04:29;2.47;;;1.92;;
73276;SDS011;61501;43.316;5.372;2023-07-30T13:06:55;4.78;;;2.20;;
73276;SDS011;61501;43.316;5.372;2023-07-30T13:09:20;4.38;;;2.47;;
73276;SDS011;61501;43.316;5.372;2023-07-30T13:11:46;2.78;;;1.70;;
73276;SDS011;61501;43.316;5.372;2023-07-30T13:14:12;3.75;;;2.10;;
73276;SDS011;61501;43.316;5.372;2023-07-30T13:16:38;3.38;;;1.65;;
73276;SDS011;61501;43.316;5.372;2023-07-30T13:19:04;4.63;;;2.05;;
73276;SDS011;61501;43.316;5.372;2023-07-30T13:21:29;4.28;;;1.60;;
73276;SDS011;61501;43.316;5.372;2023-07-30T13:23:55;5.10;;;1.80;;
73276;SDS011;61501;43.316;5.372;2023-07-30T13:26:20;4.60;;;1.67;;
73276;SDS011;61501;43.316;5.372;2023-07-30T13:28:46;3.42;;;1.65;;
73276;SDS011;61501;43.316;5.372;2023-07-30T13:31:12;5.38;;;1.90;;
73276;SDS011;61501;43.316;5.372;2023-07-30T13:33:37;4.07;;;1.42;;
73276;SDS011;61501;43.316;5.372;2023-07-30T13:36:03;3.95;;;1.67;;
73276;SDS011;61501;43.316;5.372;2023-07-30T13:38:30;4.45;;;2.08;;
73276;SDS011;61501;43.316;5.372;2023-07-30T13:40:56;4.82;;;1.63;;
73276;SDS011;61501;43.316;5.372;2023-07-30T13:43:22;5.13;;;1.65;;
73276;SDS011;61501;43.316;5.372;2023-07-30T13:45:48;4.95;;;1.80;;
73276;SDS011;61501;43.316;5.372;2023-07-30T13:48:15;8.32;;;1.73;;
73276;SDS011;61501;43.316;5.372;2023-07-30T13:50:41;8.63;;;1.92;;
73276;SDS011;61501;43.316;5.372;2023-07-30T13:53:07;4.55;;;2.08;;
73276;SDS011;61501;43.316;5.372;2023-07-30T13:55:32;6.90;;;2.35;;
73276;SDS011;61501;43.316;5.372;2023-07-30T13:57:58;5.57;;;2.33;;
73276;SDS011;61501;43.316;5.372;2023-07-30T14:00:24;4.93;;;1.92;;
73276;SDS011;61501;43.316;5.372;2023-07-30T14:02:49;7.63;;;3.17;;
73276;SDS011;61501;43.316;5.372;2023-07-30T14:05:16;7.10;;;2.30;;
73276;SDS011;61501;43.316;5.372;2023-07-30T14:07:43;8.00;;;2.33;;
73276;SDS011;61501;43.316;5.372;2023-07-30T14:10:10;7.95;;;2.90;;
73276;SDS011;61501;43.316;5.372;2023-07-30T14:12:37;7.97;;;2.92;;
73276;SDS011;61501;43.316;5.372;2023-07-30T14:15:02;7.28;;;2.35;;
73276;SDS011;61501;43.316;5.372;2023-07-30T14:17:28;5.10;;;2.22;;
73276;SDS011;61501;43.316;5.372;2023-07-30T14:19:54;8.10;;;2.83;;
73276;SDS011;61501;43.316;5.372;2023-07-30T14:22:21;6.93;;;2.40;;
73276;SDS011;61501;43.316;5.372;2023-07-30T14:24:46;8.80;;;2.42;;
73276;SDS011;61501;43.316;5.372;2023-07-30T14:27:12;5.28;;;1.90;;
73276;SDS011;61501;43.316;5.372;2023-07-30T14:29:38;7.35;;;2.22;;
73276;SDS011;61501;43.316;5.372;2023-07-30T14:32:04;7.55;;;2.05;;
73276;SDS011;61501;43.316;5.372;2023-07-30T14:34:30;11.13;;;3.72;;
73276;SDS011;61501;43.316;5.372;2023-07-30T14:36:55;7.45;;;2.20;;
73276;SDS011;61501;43.316;5.372;2023-07-30T14:39:21;7.45;;;1.98;;
73276;SDS011;61501;43.316;5.372;2023-07-30T14:41:46;5.63;;;2.20;;
73276;SDS011;61501;43.316;5.372;2023-07-30T14:44:12;8.60;;;2.10;;
73276;SDS011;61501;43.316;5.372;2023-07-30T14:46:38;6.85;;;2.17;;
73276;SDS011;61501;43.316;5.372;2023-07-30T14:49:03;5.60;;;1.95;;
73276;SDS011;61501;43.316;5.372;2023-07-30T14:51:29;5.43;;;2.25;;
73276;SDS011;61501;43.316;5.372;2023-07-30T14:53:55;4.05;;;1.90;;
73276;SDS011;61501;43.316;5.372;2023-07-30T14:56:20;6.90;;;2.08;;